sensor_id;sensor_type;location;lat;lon;timestamp;pressure;altitude;pressure_sealevel;temperature;humidity
6349;BME280;3207;42.648;23.406;2023-03-31T00:02:00;100034.50;;;14.41;nan
6349;BME280;3207;42.648;23.406;2023-03-31T00:04:27;99993.63;;;14.18;nan
6349;BME280;3207;42.648;23.406;2023-03-31T00:06:56;99998.47;;;14.32;nan
6349;BME280;3207;42.648;23.406;2023-03-31T00:09:23;99985.72;;;14.18;nan
6349;BME280;3207;42.648;23.406;2023-03-31T00:11:51;100004.03;;;14.29;nan
6349;BME280;3207;42.648;23.406;2023-03-31T00:14:19;100007.06;;;14.34;nan
6349;BME280;3207;42.648;23.406;2023-03-31T00:16:47;100003.16;;;14.19;nan
6349;BME280;3207;42.648;23.406;2023-03-31T00:19:14;99995.41;;;14.17;nan
6349;BME280;3207;42.648;23.406;2023-03-31T00:21:45;99997.91;;;14.19;nan
6349;BME280;3207;42.648;23.406;2023-03-31T00:24:13;99994.00;;;14.13;nan
6349;BME280;3207;42.648;23.406;2023-03-31T00:26:40;99986.34;;;14.01;nan
6349;BME280;3207;42.648;23.406;2023-03-31T00:29:12;99986.94;;;14.14;nan
6349;BME280;3207;42.648;23.406;2023-03-31T00:31:39;99991.81;;;14.18;nan
6349;BME280;3207;42.648;23.406;2023-03-31T00:34:07;99988.03;;;14.11;nan
6349;BME280;3207;42.648;23.406;2023-03-31T00:36:34;99974.88;;;14.02;nan
6349;BME280;3207;42.648;23.406;2023-03-31T00:39:12;99965.63;;;13.98;nan
6349;BME280;3207;42.648;23.406;2023-03-31T00:41:39;99959.91;;;13.83;nan
6349;BME280;3207;42.648;23.406;2023-03-31T00:44:10;99961.56;;;13.84;nan
6349;BME280;3207;42.648;23.406;2023-03-31T00:46:41;99954.25;;;13.87;nan
6349;BME280;3207;42.648;23.406;2023-03-31T00:49:20;99951.47;;;13.89;nan
6349;BME280;3207;42.648;23.406;2023-03-31T00:51:49;99942.44;;;13.72;nan
6349;BME280;3207;42.648;23.406;2023-03-31T00:54:20;99947.69;;;13.72;nan
6349;BME280;3207;42.648;23.406;2023-03-31T00:56:50;99940.50;;;13.74;nan
6349;BME280;3207;42.648;23.406;2023-03-31T00:59:23;99934.72;;;13.80;nan
6349;BME280;3207;42.648;23.406;2023-03-31T01:01:53;99933.50;;;13.84;nan
6349;BME280;3207;42.648;23.406;2023-03-31T01:04:25;99928.94;;;13.86;nan
6349;BME280;3207;42.648;23.406;2023-03-31T01:06:56;99941.13;;;13.97;nan
6349;BME280;3207;42.648;23.406;2023-03-31T01:09:29;99937.53;;;13.98;nan
6349;BME280;3207;42.648;23.406;2023-03-31T01:12:00;99944.88;;;14.04;nan
6349;BME280;3207;42.648;23.406;2023-03-31T01:14:28;99953.00;;;13.91;nan
6349;BME280;3207;42.648;23.406;2023-03-31T01:16:56;99946.38;;;13.97;nan
6349;BME280;3207;42.648;23.406;2023-03-31T01:19:31;99945.69;;;13.95;nan
6349;BME280;3207;42.648;23.406;2023-03-31T01:25:43;99947.91;;;14.00;nan
6349;BME280;3207;42.648;23.406;2023-03-31T01:28:23;99951.66;;;13.97;nan
6349;BME280;3207;42.648;23.406;2023-03-31T01:31:32;99954.13;;;13.99;nan
6349;BME280;3207;42.648;23.406;2023-03-31T01:34:50;99957.03;;;13.96;nan
6349;BME280;3207;42.648;23.406;2023-03-31T01:37:41;99959.66;;;13.96;nan
6349;BME280;3207;42.648;23.406;2023-03-31T01:40:36;99945.81;;;13.93;nan
6349;BME280;3207;42.648;23.406;2023-03-31T01:43:09;99936.41;;;14.01;nan
6349;BME280;3207;42.648;23.406;2023-03-31T01:45:47;99931.44;;;13.98;nan
6349;BME280;3207;42.648;23.406;2023-03-31T01:48:20;99924.56;;;14.06;nan
6349;BME280;3207;42.648;23.406;2023-03-31T01:50:56;99910.56;;;14.06;nan
6349;BME280;3207;42.648;23.406;2023-03-31T01:53:30;99910.72;;;14.23;nan
6349;BME280;3207;42.648;23.406;2023-03-31T01:56:05;99915.16;;;14.13;nan
6349;BME280;3207;42.648;23.406;2023-03-31T01:58:36;99903.53;;;14.06;nan
6349;BME280;3207;42.648;23.406;2023-03-31T02:01:09;99921.91;;;13.97;nan
6349;BME280;3207;42.648;23.406;2023-03-31T02:03:44;99914.56;;;14.10;nan
6349;BME280;3207;42.648;23.406;2023-03-31T02:06:17;99919.81;;;14.00;nan
6349;BME280;3207;42.648;23.406;2023-03-31T02:08:49;99905.72;;;14.11;nan
6349;BME280;3207;42.648;23.406;2023-03-31T02:11:21;99889.69;;;14.04;nan
6349;BME280;3207;42.648;23.406;2023-03-31T02:13:52;99901.75;;;14.26;nan
6349;BME280;3207;42.648;23.406;2023-03-31T02:16:22;99881.53;;;14.07;nan
6349;BME280;3207;42.648;23.406;2023-03-31T02:18:53;99899.94;;;14.17;nan
6349;BME280;3207;42.648;23.406;2023-03-31T02:21:27;99894.94;;;14.04;nan
6349;BME280;3207;42.648;23.406;2023-03-31T02:23:54;99880.81;;;14.05;nan
6349;BME280;3207;42.648;23.406;2023-03-31T02:26:25;99886.09;;;14.05;nan
6349;BME280;3207;42.648;23.406;2023-03-31T02:28:54;99875.28;;;13.99;nan
6349;BME280;3207;42.648;23.406;2023-03-31T02:31:26;99889.94;;;14.11;nan
6349;BME280;3207;42.648;23.406;2023-03-31T02:33:54;99884.28;;;14.06;nan
6349;BME280;3207;42.648;23.406;2023-03-31T02:36:21;99873.91;;;14.14;nan
6349;BME280;3207;42.648;23.406;2023-03-31T02:38:52;99865.31;;;14.12;nan
6349;BME280;3207;42.648;23.406;2023-03-31T02:41:22;99871.97;;;14.25;nan
6349;BME280;3207;42.648;23.406;2023-03-31T02:43:49;99858.56;;;14.19;nan
6349;BME280;3207;42.648;23.406;2023-03-31T02:46:16;99870.88;;;14.18;nan
6349;BME280;3207;42.648;23.406;2023-03-31T02:48:45;99870.59;;;14.12;nan
6349;BME280;3207;42.648;23.406;2023-03-31T02:51:40;99860.78;;;14.14;nan
6349;BME280;3207;42.648;23.406;2023-03-31T02:57:25;99848.59;;;14.03;nan
6349;BME280;3207;42.648;23.406;2023-03-31T03:00:05;99860.38;;;14.09;nan
6349;BME280;3207;42.648;23.406;2023-03-31T03:02:42;99864.50;;;14.02;nan
6349;BME280;3207;42.648;23.406;2023-03-31T03:05:20;99791.16;;;13.60;nan
6349;BME280;3207;42.648;23.406;2023-03-31T03:07:56;99850.38;;;13.93;nan
6349;BME280;3207;42.648;23.406;2023-03-31T03:10:34;99849.56;;;14.02;nan
6349;BME280;3207;42.648;23.406;2023-03-31T03:13:07;99841.66;;;13.92;nan
6349;BME280;3207;42.648;23.406;2023-03-31T03:15:43;99843.91;;;14.07;nan
6349;BME280;3207;42.648;23.406;2023-03-31T03:18:11;99841.53;;;13.94;nan
6349;BME280;3207;42.648;23.406;2023-03-31T03:20:39;99836.28;;;13.94;nan
6349;BME280;3207;42.648;23.406;2023-03-31T03:23:07;99832.94;;;14.02;nan
6349;BME280;3207;42.648;23.406;2023-03-31T03:25:34;99754.63;;;13.47;nan
6349;BME280;3207;42.648;23.406;2023-03-31T03:28:03;99800.31;;;13.75;nan
6349;BME280;3207;42.648;23.406;2023-03-31T03:30:30;99834.75;;;14.01;nan
6349;BME280;3207;42.648;23.406;2023-03-31T03:32:57;99828.81;;;14.09;nan
6349;BME280;3207;42.648;23.406;2023-03-31T03:35:24;99832.13;;;14.11;nan
6349;BME280;3207;42.648;23.406;2023-03-31T03:37:51;99822.19;;;14.05;nan
6349;BME280;3207;42.648;23.406;2023-03-31T03:40:18;99815.53;;;14.01;nan
6349;BME280;3207;42.648;23.406;2023-03-31T03:42:45;99828.53;;;14.12;nan
6349;BME280;3207;42.648;23.406;2023-03-31T03:45:13;99821.59;;;14.20;nan
6349;BME280;3207;42.648;23.406;2023-03-31T03:47:40;99829.34;;;14.12;nan
6349;BME280;3207;42.648;23.406;2023-03-31T03:50:08;99823.69;;;14.17;nan
6349;BME280;3207;42.648;23.406;2023-03-31T03:52:35;99824.09;;;14.03;nan
6349;BME280;3207;42.648;23.406;2023-03-31T03:55:04;99813.03;;;13.99;nan
6349;BME280;3207;42.648;23.406;2023-03-31T03:57:31;99821.59;;;13.91;nan
6349;BME280;3207;42.648;23.406;2023-03-31T03:59:57;99821.88;;;13.88;nan
6349;BME280;3207;42.648;23.406;2023-03-31T04:02:26;99817.19;;;13.82;nan
6349;BME280;3207;42.648;23.406;2023-03-31T04:04:54;99807.63;;;13.62;nan
6349;BME280;3207;42.648;23.406;2023-03-31T04:07:20;99815.38;;;13.73;nan
6349;BME280;3207;42.648;23.406;2023-03-31T04:09:47;99811.66;;;13.76;nan
6349;BME280;3207;42.648;23.406;2023-03-31T04:12:14;99805.00;;;13.81;nan
6349;BME280;3207;42.648;23.406;2023-03-31T04:14:41;99812.88;;;13.81;nan
6349;BME280;3207;42.648;23.406;2023-03-31T04:17:07;99813.03;;;13.89;nan
6349;BME280;3207;42.648;23.406;2023-03-31T04:19:36;99755.19;;;13.41;nan
6349;BME280;3207;42.648;23.406;2023-03-31T04:22:03;99798.50;;;13.66;nan
6349;BME280;3207;42.648;23.406;2023-03-31T04:24:29;99801.97;;;13.76;nan
6349;BME280;3207;42.648;23.406;2023-03-31T04:26:58;99812.19;;;13.89;nan
6349;BME280;3207;42.648;23.406;2023-03-31T04:29:25;99816.63;;;13.88;nan
6349;BME280;3207;42.648;23.406;2023-03-31T04:31:53;99813.84;;;14.00;nan
6349;BME280;3207;42.648;23.406;2023-03-31T04:34:24;99815.13;;;13.96;nan
6349;BME280;3207;42.648;23.406;2023-03-31T04:37:00;99806.28;;;13.87;nan
6349;BME280;3207;42.648;23.406;2023-03-31T04:39:28;99797.81;;;13.83;nan
6349;BME280;3207;42.648;23.406;2023-03-31T04:41:56;99793.97;;;13.87;nan
6349;BME280;3207;42.648;23.406;2023-03-31T04:44:23;99784.41;;;13.86;nan
6349;BME280;3207;42.648;23.406;2023-03-31T04:46:50;99777.38;;;13.87;nan
6349;BME280;3207;42.648;23.406;2023-03-31T04:49:17;99782.06;;;13.74;nan
6349;BME280;3207;42.648;23.406;2023-03-31T04:51:44;99780.91;;;13.67;nan
6349;BME280;3207;42.648;23.406;2023-03-31T04:54:12;99775.66;;;13.67;nan
6349;BME280;3207;42.648;23.406;2023-03-31T04:56:39;99790.06;;;13.72;nan
6349;BME280;3207;42.648;23.406;2023-03-31T04:59:05;99751.06;;;13.58;nan
6349;BME280;3207;42.648;23.406;2023-03-31T05:01:33;99783.97;;;13.81;nan
6349;BME280;3207;42.648;23.406;2023-03-31T05:04:00;99776.53;;;13.86;nan
6349;BME280;3207;42.648;23.406;2023-03-31T05:06:28;99775.84;;;13.75;nan
6349;BME280;3207;42.648;23.406;2023-03-31T05:08:54;99782.88;;;13.74;nan
6349;BME280;3207;42.648;23.406;2023-03-31T05:11:22;99779.97;;;13.77;nan
6349;BME280;3207;42.648;23.406;2023-03-31T05:13:50;99777.19;;;13.60;nan
6349;BME280;3207;42.648;23.406;2023-03-31T05:16:17;99775.69;;;13.76;nan
6349;BME280;3207;42.648;23.406;2023-03-31T05:18:43;99775.13;;;13.82;nan
6349;BME280;3207;42.648;23.406;2023-03-31T05:21:11;99778.34;;;13.86;nan
6349;BME280;3207;42.648;23.406;2023-03-31T05:23:39;99749.56;;;13.84;nan
6349;BME280;3207;42.648;23.406;2023-03-31T05:26:06;99770.31;;;14.07;nan
6349;BME280;3207;42.648;23.406;2023-03-31T05:28:35;99780.25;;;14.13;nan
6349;BME280;3207;42.648;23.406;2023-03-31T05:31:03;99778.56;;;14.31;nan
6349;BME280;3207;42.648;23.406;2023-03-31T05:33:31;99781.19;;;14.50;nan
6349;BME280;3207;42.648;23.406;2023-03-31T05:35:58;99779.81;;;14.37;nan
6349;BME280;3207;42.648;23.406;2023-03-31T05:38:26;99782.56;;;14.54;nan
6349;BME280;3207;42.648;23.406;2023-03-31T05:40:56;99756.41;;;14.53;nan
6349;BME280;3207;42.648;23.406;2023-03-31T05:43:22;99768.50;;;14.83;nan
6349;BME280;3207;42.648;23.406;2023-03-31T05:45:51;99755.81;;;14.96;nan
6349;BME280;3207;42.648;23.406;2023-03-31T05:48:18;99755.72;;;15.15;nan
6349;BME280;3207;42.648;23.406;2023-03-31T05:50:45;99760.59;;;15.37;nan
6349;BME280;3207;42.648;23.406;2023-03-31T05:53:13;99719.06;;;15.31;nan
6349;BME280;3207;42.648;23.406;2023-03-31T05:55:40;99740.19;;;15.67;nan
6349;BME280;3207;42.648;23.406;2023-03-31T05:58:07;99748.75;;;16.04;nan
6349;BME280;3207;42.648;23.406;2023-03-31T06:00:34;99750.94;;;16.35;nan
6349;BME280;3207;42.648;23.406;2023-03-31T06:03:04;99745.19;;;17.49;nan
6349;BME280;3207;42.648;23.406;2023-03-31T06:05:34;99753.25;;;18.86;nan
6349;BME280;3207;42.648;23.406;2023-03-31T06:08:01;99749.78;;;20.24;nan
6349;BME280;3207;42.648;23.406;2023-03-31T06:10:28;99747.75;;;21.58;nan
6349;BME280;3207;42.648;23.406;2023-03-31T06:12:55;99747.16;;;22.26;nan
6349;BME280;3207;42.648;23.406;2023-03-31T06:15:22;99744.72;;;23.28;nan
6349;BME280;3207;42.648;23.406;2023-03-31T06:17:49;99746.88;;;23.66;nan
6349;BME280;3207;42.648;23.406;2023-03-31T06:20:18;99742.22;;;24.14;nan
6349;BME280;3207;42.648;23.406;2023-03-31T06:22:44;99744.03;;;24.60;nan
6349;BME280;3207;42.648;23.406;2023-03-31T06:25:11;99743.97;;;24.99;nan
6349;BME280;3207;42.648;23.406;2023-03-31T06:27:38;99734.09;;;25.76;nan
6349;BME280;3207;42.648;23.406;2023-03-31T06:30:06;99744.34;;;25.85;nan
6349;BME280;3207;42.648;23.406;2023-03-31T06:32:33;99746.38;;;26.65;nan
6349;BME280;3207;42.648;23.406;2023-03-31T06:35:00;99749.16;;;27.13;nan
6349;BME280;3207;42.648;23.406;2023-03-31T06:37:28;99741.22;;;27.36;nan
6349;BME280;3207;42.648;23.406;2023-03-31T06:39:55;99753.78;;;27.54;nan
6349;BME280;3207;42.648;23.406;2023-03-31T06:42:22;99746.63;;;28.42;nan
6349;BME280;3207;42.648;23.406;2023-03-31T06:44:49;99753.25;;;29.10;nan
6349;BME280;3207;42.648;23.406;2023-03-31T06:47:16;99738.09;;;28.81;nan
6349;BME280;3207;42.648;23.406;2023-03-31T06:49:43;99726.34;;;28.98;nan
6349;BME280;3207;42.648;23.406;2023-03-31T06:52:09;99746.56;;;29.12;nan
6349;BME280;3207;42.648;23.406;2023-03-31T06:54:45;99736.66;;;29.87;nan
6349;BME280;3207;42.648;23.406;2023-03-31T06:57:12;99735.25;;;29.39;nan
6349;BME280;3207;42.648;23.406;2023-03-31T06:59:38;99734.31;;;28.93;nan
6349;BME280;3207;42.648;23.406;2023-03-31T07:02:06;99732.97;;;28.79;nan
6349;BME280;3207;42.648;23.406;2023-03-31T07:04:32;99726.69;;;29.42;nan
6349;BME280;3207;42.648;23.406;2023-03-31T07:06:59;99728.53;;;29.53;nan
6349;BME280;3207;42.648;23.406;2023-03-31T07:09:26;99717.91;;;30.08;nan
6349;BME280;3207;42.648;23.406;2023-03-31T07:11:55;99723.03;;;30.10;nan
6349;BME280;3207;42.648;23.406;2023-03-31T07:14:22;99725.66;;;30.05;nan
6349;BME280;3207;42.648;23.406;2023-03-31T07:16:49;99714.44;;;30.13;nan
6349;BME280;3207;42.648;23.406;2023-03-31T07:19:16;99711.78;;;30.68;nan
6349;BME280;3207;42.648;23.406;2023-03-31T07:21:43;99714.94;;;31.57;nan
6349;BME280;3207;42.648;23.406;2023-03-31T07:24:10;99713.72;;;31.16;nan
6349;BME280;3207;42.648;23.406;2023-03-31T07:26:37;99716.00;;;31.78;nan
6349;BME280;3207;42.648;23.406;2023-03-31T07:29:05;99714.28;;;32.36;nan
6349;BME280;3207;42.648;23.406;2023-03-31T07:31:32;99715.94;;;32.89;nan
6349;BME280;3207;42.648;23.406;2023-03-31T07:34:00;99714.06;;;32.95;nan
6349;BME280;3207;42.648;23.406;2023-03-31T07:36:27;99705.00;;;32.69;nan
6349;BME280;3207;42.648;23.406;2023-03-31T07:38:54;99713.00;;;31.75;nan
6349;BME280;3207;42.648;23.406;2023-03-31T07:41:21;99708.66;;;29.42;nan
6349;BME280;3207;42.648;23.406;2023-03-31T07:43:49;99704.16;;;28.80;nan
6349;BME280;3207;42.648;23.406;2023-03-31T07:46:19;99705.22;;;29.47;nan
6349;BME280;3207;42.648;23.406;2023-03-31T07:48:47;99706.22;;;29.41;nan
6349;BME280;3207;42.648;23.406;2023-03-31T07:51:15;99703.47;;;29.69;nan
6349;BME280;3207;42.648;23.406;2023-03-31T07:53:43;99707.00;;;30.75;nan
6349;BME280;3207;42.648;23.406;2023-03-31T07:56:10;99691.00;;;31.39;nan
6349;BME280;3207;42.648;23.406;2023-03-31T07:58:37;99687.22;;;29.81;nan
6349;BME280;3207;42.648;23.406;2023-03-31T08:01:04;99679.97;;;28.45;nan
6349;BME280;3207;42.648;23.406;2023-03-31T08:03:33;99695.22;;;29.31;nan
6349;BME280;3207;42.648;23.406;2023-03-31T08:06:00;99693.38;;;28.91;nan
6349;BME280;3207;42.648;23.406;2023-03-31T08:08:27;99691.84;;;27.79;nan
6349;BME280;3207;42.648;23.406;2023-03-31T08:10:54;99680.72;;;26.31;nan
6349;BME280;3207;42.648;23.406;2023-03-31T08:13:20;99671.72;;;27.28;nan
6349;BME280;3207;42.648;23.406;2023-03-31T08:15:47;99662.91;;;28.16;nan
6349;BME280;3207;42.648;23.406;2023-03-31T08:18:14;99657.88;;;26.65;nan
6349;BME280;3207;42.648;23.406;2023-03-31T08:20:42;99656.66;;;25.99;nan
6349;BME280;3207;42.648;23.406;2023-03-31T08:23:09;99647.91;;;25.29;nan
6349;BME280;3207;42.648;23.406;2023-03-31T08:25:36;99650.75;;;25.34;nan
6349;BME280;3207;42.648;23.406;2023-03-31T08:28:03;99639.09;;;23.80;nan
6349;BME280;3207;42.648;23.406;2023-03-31T08:30:31;99637.06;;;23.62;nan
6349;BME280;3207;42.648;23.406;2023-03-31T08:32:58;99600.41;;;23.10;nan
6349;BME280;3207;42.648;23.406;2023-03-31T08:35:24;99626.91;;;23.25;nan
6349;BME280;3207;42.648;23.406;2023-03-31T08:37:53;99622.31;;;22.99;nan
6349;BME280;3207;42.648;23.406;2023-03-31T08:40:21;99602.50;;;23.34;nan
6349;BME280;3207;42.648;23.406;2023-03-31T08:42:52;99595.03;;;24.42;nan
6349;BME280;3207;42.648;23.406;2023-03-31T08:45:22;99593.66;;;26.51;nan
6349;BME280;3207;42.648;23.406;2023-03-31T08:47:52;99592.97;;;27.04;nan
6349;BME280;3207;42.648;23.406;2023-03-31T08:50:24;99589.50;;;28.38;nan
6349;BME280;3207;42.648;23.406;2023-03-31T08:52:58;99590.22;;;29.02;nan
6349;BME280;3207;42.648;23.406;2023-03-31T08:55:34;99587.78;;;29.18;nan
6349;BME280;3207;42.648;23.406;2023-03-31T08:58:07;99573.22;;;30.41;nan
6349;BME280;3207;42.648;23.406;2023-03-31T09:00:39;99592.88;;;30.80;nan
6349;BME280;3207;42.648;23.406;2023-03-31T09:03:17;99592.03;;;30.14;nan
6349;BME280;3207;42.648;23.406;2023-03-31T09:05:51;99593.59;;;30.10;nan
6349;BME280;3207;42.648;23.406;2023-03-31T09:08:31;99577.47;;;30.15;nan
6349;BME280;3207;42.648;23.406;2023-03-31T09:11:05;99580.41;;;27.69;nan
6349;BME280;3207;42.648;23.406;2023-03-31T09:13:56;99576.44;;;26.77;nan
6349;BME280;3207;42.648;23.406;2023-03-31T09:16:32;99560.06;;;25.94;nan
6349;BME280;3207;42.648;23.406;2023-03-31T09:19:01;99552.31;;;25.86;nan
6349;BME280;3207;42.648;23.406;2023-03-31T09:21:31;99558.78;;;25.78;nan
6349;BME280;3207;42.648;23.406;2023-03-31T09:24:04;99556.31;;;25.77;nan
6349;BME280;3207;42.648;23.406;2023-03-31T09:26:36;99560.41;;;25.54;nan
6349;BME280;3207;42.648;23.406;2023-03-31T09:29:06;99576.16;;;26.12;nan
6349;BME280;3207;42.648;23.406;2023-03-31T09:31:38;99547.13;;;26.28;nan
6349;BME280;3207;42.648;23.406;2023-03-31T09:34:12;99545.72;;;27.80;nan
6349;BME280;3207;42.648;23.406;2023-03-31T09:36:40;99548.13;;;28.16;nan
6349;BME280;3207;42.648;23.406;2023-03-31T09:39:11;99542.31;;;27.49;nan
6349;BME280;3207;42.648;23.406;2023-03-31T09:41:42;99536.97;;;26.96;nan
6349;BME280;3207;42.648;23.406;2023-03-31T09:44:21;99543.38;;;25.24;nan
6349;BME280;3207;42.648;23.406;2023-03-31T09:46:49;99536.88;;;25.38;nan
6349;BME280;3207;42.648;23.406;2023-03-31T09:49:18;99532.88;;;23.95;nan
6349;BME280;3207;42.648;23.406;2023-03-31T09:51:50;99512.44;;;23.17;nan
6349;BME280;3207;42.648;23.406;2023-03-31T09:54:25;99528.50;;;22.69;nan
6349;BME280;3207;42.648;23.406;2023-03-31T09:56:55;99516.19;;;22.01;nan
6349;BME280;3207;42.648;23.406;2023-03-31T09:59:29;99534.22;;;21.71;nan
6349;BME280;3207;42.648;23.406;2023-03-31T10:01:58;99519.91;;;21.23;nan
6349;BME280;3207;42.648;23.406;2023-03-31T10:04:29;99521.56;;;21.02;nan
6349;BME280;3207;42.648;23.406;2023-03-31T10:07:00;99514.59;;;21.01;nan
6349;BME280;3207;42.648;23.406;2023-03-31T10:09:32;99497.00;;;20.58;nan
6349;BME280;3207;42.648;23.406;2023-03-31T10:12:03;99491.28;;;20.39;nan
6349;BME280;3207;42.648;23.406;2023-03-31T10:14:37;99498.81;;;20.21;nan
6349;BME280;3207;42.648;23.406;2023-03-31T10:17:05;99494.69;;;20.04;nan
6349;BME280;3207;42.648;23.406;2023-03-31T10:19:33;99484.56;;;19.93;nan
6349;BME280;3207;42.648;23.406;2023-03-31T10:22:03;99487.50;;;19.54;nan
6349;BME280;3207;42.648;23.406;2023-03-31T10:24:39;99490.19;;;19.46;nan
6349;BME280;3207;42.648;23.406;2023-03-31T10:27:17;99447.22;;;18.83;nan
6349;BME280;3207;42.648;23.406;2023-03-31T10:29:46;99497.53;;;19.06;nan
6349;BME280;3207;42.648;23.406;2023-03-31T10:32:19;99492.88;;;18.62;nan
6349;BME280;3207;42.648;23.406;2023-03-31T10:34:48;99492.66;;;18.72;nan
6349;BME280;3207;42.648;23.406;2023-03-31T10:37:17;99487.41;;;18.56;nan
6349;BME280;3207;42.648;23.406;2023-03-31T10:39:46;99479.28;;;18.35;nan
6349;BME280;3207;42.648;23.406;2023-03-31T10:42:19;99486.41;;;18.34;nan
6349;BME280;3207;42.648;23.406;2023-03-31T10:44:47;99476.41;;;18.21;nan
6349;BME280;3207;42.648;23.406;2023-03-31T10:47:19;99481.66;;;18.52;nan
6349;BME280;3207;42.648;23.406;2023-03-31T10:49:48;99470.06;;;18.31;nan
6349;BME280;3207;42.648;23.406;2023-03-31T10:52:19;99474.97;;;18.03;nan
6349;BME280;3207;42.648;23.406;2023-03-31T10:54:54;99480.75;;;18.06;nan
6349;BME280;3207;42.648;23.406;2023-03-31T10:57:28;99494.63;;;18.08;nan
6349;BME280;3207;42.648;23.406;2023-03-31T11:00:14;99475.03;;;17.95;nan
6349;BME280;3207;42.648;23.406;2023-03-31T11:03:20;99467.84;;;17.56;nan
6349;BME280;3207;42.648;23.406;2023-03-31T11:05:51;99469.16;;;17.60;nan
6349;BME280;3207;42.648;23.406;2023-03-31T11:08:32;99437.72;;;17.26;nan
6349;BME280;3207;42.648;23.406;2023-03-31T11:11:18;99475.97;;;17.54;nan
6349;BME280;3207;42.648;23.406;2023-03-31T11:13:53;99450.19;;;17.48;nan
6349;BME280;3207;42.648;23.406;2023-03-31T11:16:27;99453.34;;;17.44;nan
6349;BME280;3207;42.648;23.406;2023-03-31T11:19:13;99433.03;;;17.44;nan
6349;BME280;3207;42.648;23.406;2023-03-31T11:21:51;99436.53;;;17.37;nan
6349;BME280;3207;42.648;23.406;2023-03-31T11:24:32;99427.13;;;17.34;nan
6349;BME280;3207;42.648;23.406;2023-03-31T11:27:20;99423.94;;;17.39;nan
6349;BME280;3207;42.648;23.406;2023-03-31T11:29:53;99394.78;;;17.24;nan
6349;BME280;3207;42.648;23.406;2023-03-31T11:32:32;99413.31;;;17.16;nan
6349;BME280;3207;42.648;23.406;2023-03-31T11:35:16;99413.13;;;17.26;nan
6349;BME280;3207;42.648;23.406;2023-03-31T11:37:56;99409.94;;;17.30;nan
6349;BME280;3207;42.648;23.406;2023-03-31T11:40:46;99412.81;;;17.12;nan
6349;BME280;3207;42.648;23.406;2023-03-31T11:43:25;99410.25;;;17.43;nan
6349;BME280;3207;42.648;23.406;2023-03-31T11:45:59;99407.25;;;17.54;nan
6349;BME280;3207;42.648;23.406;2023-03-31T11:48:34;99405.25;;;17.56;nan
6349;BME280;3207;42.648;23.406;2023-03-31T11:51:08;99379.38;;;17.44;nan
6349;BME280;3207;42.648;23.406;2023-03-31T11:53:38;99390.78;;;17.36;nan
6349;BME280;3207;42.648;23.406;2023-03-31T11:56:08;99378.53;;;17.43;nan
6349;BME280;3207;42.648;23.406;2023-03-31T11:58:41;99383.41;;;17.24;nan
6349;BME280;3207;42.648;23.406;2023-03-31T12:01:16;99376.25;;;17.32;nan
6349;BME280;3207;42.648;23.406;2023-03-31T12:03:52;99375.97;;;17.19;nan
6349;BME280;3207;42.648;23.406;2023-03-31T12:06:21;99374.00;;;17.13;nan
6349;BME280;3207;42.648;23.406;2023-03-31T12:09:04;99370.53;;;17.12;nan
6349;BME280;3207;42.648;23.406;2023-03-31T12:11:36;99359.97;;;17.12;nan
6349;BME280;3207;42.648;23.406;2023-03-31T12:14:21;99349.09;;;17.07;nan
6349;BME280;3207;42.648;23.406;2023-03-31T12:16:51;99339.88;;;16.95;nan
6349;BME280;3207;42.648;23.406;2023-03-31T12:19:22;99334.06;;;17.08;nan
6349;BME280;3207;42.648;23.406;2023-03-31T12:21:55;99335.31;;;17.36;nan
6349;BME280;3207;42.648;23.406;2023-03-31T12:24:24;99326.50;;;17.44;nan
6349;BME280;3207;42.648;23.406;2023-03-31T12:26:58;99323.25;;;17.34;nan
6349;BME280;3207;42.648;23.406;2023-03-31T12:29:31;99331.25;;;17.48;nan
6349;BME280;3207;42.648;23.406;2023-03-31T12:32:03;99325.66;;;17.51;nan
6349;BME280;3207;42.648;23.406;2023-03-31T12:34:31;99313.56;;;17.57;nan
6349;BME280;3207;42.648;23.406;2023-03-31T12:37:23;99313.47;;;17.42;nan
6349;BME280;3207;42.648;23.406;2023-03-31T12:40:06;99299.75;;;17.47;nan
6349;BME280;3207;42.648;23.406;2023-03-31T12:42:53;99295.47;;;17.38;nan
6349;BME280;3207;42.648;23.406;2023-03-31T12:45:27;99292.94;;;17.52;nan
6349;BME280;3207;42.648;23.406;2023-03-31T12:48:14;99295.91;;;17.58;nan
6349;BME280;3207;42.648;23.406;2023-03-31T12:50:54;99270.28;;;17.58;nan
6349;BME280;3207;42.648;23.406;2023-03-31T12:53:30;99269.09;;;17.91;nan
6349;BME280;3207;42.648;23.406;2023-03-31T12:56:00;99243.66;;;17.68;nan
6349;BME280;3207;42.648;23.406;2023-03-31T12:58:41;99261.78;;;17.71;nan
6349;BME280;3207;42.648;23.406;2023-03-31T13:01:11;99241.19;;;17.66;nan
6349;BME280;3207;42.648;23.406;2023-03-31T13:03:46;99265.47;;;17.62;nan
6349;BME280;3207;42.648;23.406;2023-03-31T13:09:46;99252.13;;;17.55;nan
6349;BME280;3207;42.648;23.406;2023-03-31T13:12:19;99223.41;;;17.52;nan
6349;BME280;3207;42.648;23.406;2023-03-31T13:14:49;99239.66;;;17.72;nan
6349;BME280;3207;42.648;23.406;2023-03-31T13:17:28;99236.19;;;17.94;nan
6349;BME280;3207;42.648;23.406;2023-03-31T13:20:14;99204.03;;;17.60;nan
6349;BME280;3207;42.648;23.406;2023-03-31T13:22:44;99217.34;;;17.43;nan
6349;BME280;3207;42.648;23.406;2023-03-31T13:28:32;99197.13;;;17.59;nan
6349;BME280;3207;42.648;23.406;2023-03-31T13:31:00;99207.22;;;17.55;nan
6349;BME280;3207;42.648;23.406;2023-03-31T13:33:33;99190.34;;;17.56;nan
6349;BME280;3207;42.648;23.406;2023-03-31T13:36:14;99187.28;;;17.44;nan
6349;BME280;3207;42.648;23.406;2023-03-31T13:38:52;99195.91;;;17.38;nan
6349;BME280;3207;42.648;23.406;2023-03-31T13:41:29;99177.81;;;17.50;nan
6349;BME280;3207;42.648;23.406;2023-03-31T13:44:15;99187.81;;;17.40;nan
6349;BME280;3207;42.648;23.406;2023-03-31T13:47:32;99186.69;;;17.34;nan
6349;BME280;3207;42.648;23.406;2023-03-31T13:50:14;99185.13;;;17.25;nan
6349;BME280;3207;42.648;23.406;2023-03-31T13:52:52;99183.75;;;16.98;nan
6349;BME280;3207;42.648;23.406;2023-03-31T13:55:55;99182.28;;;16.96;nan
6349;BME280;3207;42.648;23.406;2023-03-31T13:58:33;99176.38;;;16.94;nan
6349;BME280;3207;42.648;23.406;2023-03-31T14:01:20;99173.81;;;17.08;nan
6349;BME280;3207;42.648;23.406;2023-03-31T14:04:04;99169.00;;;17.12;nan
6349;BME280;3207;42.648;23.406;2023-03-31T14:06:37;99152.28;;;16.89;nan
6349;BME280;3207;42.648;23.406;2023-03-31T14:09:09;99140.84;;;16.73;nan
6349;BME280;3207;42.648;23.406;2023-03-31T14:11:37;99138.66;;;16.77;nan